Orin, Wyoming
Current Conditions -  °F | °C
As of 12:53 AM on Thursday 29 Jan 2015 (Local Time) from KDGW Reporting Station
Overcast Overcast  
Wind Chill: 29°   Ceiling: 7000
Heat Index: 33°   Visibility: 10mi
Dew Point: 24°   Wind: 5mph
Humidity: 70%   Direction: 310°NW
Pressure: 30.41"   Gusts: NA
Location:  43.1775°N, 105.367°W
Report Text: KDGW 290753Z AUTO 31004KT 10SM BKN070 OVC090 01/M04 A3041 RMK AO2 SLP313 T00061044
Loading
Personal Weather Stations






























Interactive Weather Map New forecast layout! Learn more

10-Day Weather Forecast

Advertisements
Track Severe Weather on mobile